sensor_id;sensor_type;location;lat;lon;timestamp;P1;durP1;ratioP1;P2;durP2;ratioP2
21122;SDS011;10719;48.130;11.630;2023-02-05T00:00:03;2.87;;;1.20;;
21122;SDS011;10719;48.130;11.630;2023-02-05T00:02:30;2.23;;;0.60;;
21122;SDS011;10719;48.130;11.630;2023-02-05T00:04:56;1.63;;;1.03;;
21122;SDS011;10719;48.130;11.630;2023-02-05T00:07:22;1.40;;;0.77;;
21122;SDS011;10719;48.130;11.630;2023-02-05T00:09:47;1.20;;;0.57;;
21122;SDS011;10719;48.130;11.630;2023-02-05T00:12:13;2.70;;;0.73;;
21122;SDS011;10719;48.130;11.630;2023-02-05T00:14:39;1.33;;;0.77;;
21122;SDS011;10719;48.130;11.630;2023-02-05T00:17:04;1.60;;;0.87;;
21122;SDS011;10719;48.130;11.630;2023-02-05T00:19:30;2.90;;;1.30;;
21122;SDS011;10719;48.130;11.630;2023-02-05T00:21:55;3.57;;;0.87;;
21122;SDS011;10719;48.130;11.630;2023-02-05T00:24:21;3.10;;;1.07;;
21122;SDS011;10719;48.130;11.630;2023-02-05T00:26:47;2.40;;;0.90;;
21122;SDS011;10719;48.130;11.630;2023-02-05T00:29:13;1.60;;;1.00;;
21122;SDS011;10719;48.130;11.630;2023-02-05T00:31:38;2.87;;;1.10;;
21122;SDS011;10719;48.130;11.630;2023-02-05T00:34:04;2.30;;;1.30;;
21122;SDS011;10719;48.130;11.630;2023-02-05T00:36:29;0.50;;;0.50;;
21122;SDS011;10719;48.130;11.630;2023-02-05T00:38:55;2.67;;;1.03;;
21122;SDS011;10719;48.130;11.630;2023-02-05T00:41:21;2.57;;;0.70;;
21122;SDS011;10719;48.130;11.630;2023-02-05T00:43:46;2.60;;;0.97;;
21122;SDS011;10719;48.130;11.630;2023-02-05T00:46:12;0.40;;;0.40;;
21122;SDS011;10719;48.130;11.630;2023-02-05T00:48:38;1.23;;;0.60;;
21122;SDS011;10719;48.130;11.630;2023-02-05T00:51:05;3.87;;;0.60;;
21122;SDS011;10719;48.130;11.630;2023-02-05T00:53:31;1.00;;;0.63;;
21122;SDS011;10719;48.130;11.630;2023-02-05T00:55:56;2.92;;;1.33;;
21122;SDS011;10719;48.130;11.630;2023-02-05T00:58:22;2.57;;;0.97;;
21122;SDS011;10719;48.130;11.630;2023-02-05T01:00:48;1.50;;;0.83;;
21122;SDS011;10719;48.130;11.630;2023-02-05T01:03:14;1.50;;;0.90;;
21122;SDS011;10719;48.130;11.630;2023-02-05T01:05:40;1.83;;;1.00;;
21122;SDS011;10719;48.130;11.630;2023-02-05T01:08:07;1.70;;;0.80;;
21122;SDS011;10719;48.130;11.630;2023-02-05T01:10:34;3.47;;;0.97;;
21122;SDS011;10719;48.130;11.630;2023-02-05T01:13:01;0.70;;;0.60;;
21122;SDS011;10719;48.130;11.630;2023-02-05T01:15:27;2.40;;;1.10;;
21122;SDS011;10719;48.130;11.630;2023-02-05T01:17:52;1.23;;;0.63;;
21122;SDS011;10719;48.130;11.630;2023-02-05T01:20:18;3.17;;;1.33;;
21122;SDS011;10719;48.130;11.630;2023-02-05T01:22:45;3.73;;;1.33;;
21122;SDS011;10719;48.130;11.630;2023-02-05T01:25:11;1.53;;;0.90;;
21122;SDS011;10719;48.130;11.630;2023-02-05T01:27:37;3.50;;;1.57;;
21122;SDS011;10719;48.130;11.630;2023-02-05T01:30:03;3.27;;;1.47;;
21122;SDS011;10719;48.130;11.630;2023-02-05T01:32:29;3.30;;;0.83;;
21122;SDS011;10719;48.130;11.630;2023-02-05T01:34:55;2.37;;;1.37;;
21122;SDS011;10719;48.130;11.630;2023-02-05T01:37:21;1.23;;;0.73;;
21122;SDS011;10719;48.130;11.630;2023-02-05T01:39:46;2.40;;;1.13;;
21122;SDS011;10719;48.130;11.630;2023-02-05T01:44:44;2.53;;;1.10;;
21122;SDS011;10719;48.130;11.630;2023-02-05T01:50:14;2.23;;;1.53;;
21122;SDS011;10719;48.130;11.630;2023-02-05T01:52:46;1.60;;;0.80;;
21122;SDS011;10719;48.130;11.630;2023-02-05T01:55:13;1.27;;;0.80;;
21122;SDS011;10719;48.130;11.630;2023-02-05T01:57:39;1.93;;;0.93;;
21122;SDS011;10719;48.130;11.630;2023-02-05T02:00:05;1.10;;;0.97;;
21122;SDS011;10719;48.130;11.630;2023-02-05T02:02:35;1.07;;;0.60;;
21122;SDS011;10719;48.130;11.630;2023-02-05T02:05:06;3.60;;;1.50;;
21122;SDS011;10719;48.130;11.630;2023-02-05T02:07:34;2.80;;;1.20;;
21122;SDS011;10719;48.130;11.630;2023-02-05T02:10:00;2.83;;;0.87;;
21122;SDS011;10719;48.130;11.630;2023-02-05T02:12:27;2.00;;;1.07;;
21122;SDS011;10719;48.130;11.630;2023-02-05T02:14:57;3.60;;;1.53;;
21122;SDS011;10719;48.130;11.630;2023-02-05T02:17:27;3.33;;;1.30;;
21122;SDS011;10719;48.130;11.630;2023-02-05T02:28:10;2.27;;;1.20;;
21122;SDS011;10719;48.130;11.630;2023-02-05T02:33:13;1.83;;;1.17;;
21122;SDS011;10719;48.130;11.630;2023-02-05T02:35:50;2.17;;;1.10;;
21122;SDS011;10719;48.130;11.630;2023-02-05T02:38:40;4.20;;;1.47;;
21122;SDS011;10719;48.130;11.630;2023-02-05T02:41:14;3.40;;;1.60;;
21122;SDS011;10719;48.130;11.630;2023-02-05T02:43:48;3.40;;;1.53;;
21122;SDS011;10719;48.130;11.630;2023-02-05T02:46:27;2.03;;;1.17;;
21122;SDS011;10719;48.130;11.630;2023-02-05T02:49:00;1.57;;;0.80;;
21122;SDS011;10719;48.130;11.630;2023-02-05T02:51:29;6.83;;;1.93;;
21122;SDS011;10719;48.130;11.630;2023-02-05T02:53:58;2.37;;;1.10;;
21122;SDS011;10719;48.130;11.630;2023-02-05T02:56:28;5.22;;;1.88;;
21122;SDS011;10719;48.130;11.630;2023-02-05T02:59:00;4.50;;;1.83;;
21122;SDS011;10719;48.130;11.630;2023-02-05T03:01:30;3.60;;;0.93;;
21122;SDS011;10719;48.130;11.630;2023-02-05T03:04:10;3.80;;;1.63;;
21122;SDS011;10719;48.130;11.630;2023-02-05T03:06:42;2.40;;;1.17;;
21122;SDS011;10719;48.130;11.630;2023-02-05T03:09:12;4.20;;;1.63;;
21122;SDS011;10719;48.130;11.630;2023-02-05T03:11:50;4.37;;;2.17;;
21122;SDS011;10719;48.130;11.630;2023-02-05T03:14:16;4.80;;;2.07;;
21122;SDS011;10719;48.130;11.630;2023-02-05T03:16:41;3.17;;;1.60;;
21122;SDS011;10719;48.130;11.630;2023-02-05T03:19:07;4.00;;;1.70;;
21122;SDS011;10719;48.130;11.630;2023-02-05T03:21:39;3.30;;;1.87;;
21122;SDS011;10719;48.130;11.630;2023-02-05T03:24:07;2.43;;;1.30;;
21122;SDS011;10719;48.130;11.630;2023-02-05T03:26:34;2.90;;;1.27;;
21122;SDS011;10719;48.130;11.630;2023-02-05T03:29:01;5.30;;;1.73;;
21122;SDS011;10719;48.130;11.630;2023-02-05T03:34:13;1.13;;;0.90;;
21122;SDS011;10719;48.130;11.630;2023-02-05T03:40:13;3.20;;;1.57;;
21122;SDS011;10719;48.130;11.630;2023-02-05T03:48:26;1.87;;;1.10;;
21122;SDS011;10719;48.130;11.630;2023-02-05T03:56:09;2.20;;;1.13;;
21122;SDS011;10719;48.130;11.630;2023-02-05T03:58:42;4.67;;;1.93;;
21122;SDS011;10719;48.130;11.630;2023-02-05T04:01:12;1.57;;;1.10;;
21122;SDS011;10719;48.130;11.630;2023-02-05T04:03:38;0.70;;;0.70;;
21122;SDS011;10719;48.130;11.630;2023-02-05T04:06:03;4.13;;;1.57;;
21122;SDS011;10719;48.130;11.630;2023-02-05T04:08:30;2.60;;;1.40;;
21122;SDS011;10719;48.130;11.630;2023-02-05T04:10:56;5.27;;;2.77;;
21122;SDS011;10719;48.130;11.630;2023-02-05T04:13:22;2.00;;;1.20;;
21122;SDS011;10719;48.130;11.630;2023-02-05T04:15:48;3.33;;;1.77;;
21122;SDS011;10719;48.130;11.630;2023-02-05T04:18:14;2.03;;;1.03;;
21122;SDS011;10719;48.130;11.630;2023-02-05T04:20:40;1.47;;;0.97;;
21122;SDS011;10719;48.130;11.630;2023-02-05T04:23:05;1.67;;;1.03;;
21122;SDS011;10719;48.130;11.630;2023-02-05T04:25:31;3.43;;;1.37;;
21122;SDS011;10719;48.130;11.630;2023-02-05T04:27:57;0.90;;;0.70;;
21122;SDS011;10719;48.130;11.630;2023-02-05T04:30:22;1.20;;;0.80;;
21122;SDS011;10719;48.130;11.630;2023-02-05T04:32:48;0.77;;;0.57;;
21122;SDS011;10719;48.130;11.630;2023-02-05T04:35:14;3.23;;;1.50;;
21122;SDS011;10719;48.130;11.630;2023-02-05T04:37:39;2.47;;;1.20;;
21122;SDS011;10719;48.130;11.630;2023-02-05T04:40:05;2.37;;;1.00;;
21122;SDS011;10719;48.130;11.630;2023-02-05T04:42:31;4.40;;;1.33;;
21122;SDS011;10719;48.130;11.630;2023-02-05T04:44:57;0.60;;;0.50;;
21122;SDS011;10719;48.130;11.630;2023-02-05T04:47:24;2.53;;;1.00;;
21122;SDS011;10719;48.130;11.630;2023-02-05T04:49:49;1.50;;;1.30;;
21122;SDS011;10719;48.130;11.630;2023-02-05T04:52:15;3.00;;;0.97;;
21122;SDS011;10719;48.130;11.630;2023-02-05T04:54:40;1.37;;;0.90;;
21122;SDS011;10719;48.130;11.630;2023-02-05T04:57:06;3.37;;;0.97;;
21122;SDS011;10719;48.130;11.630;2023-02-05T04:59:31;2.63;;;0.70;;
21122;SDS011;10719;48.130;11.630;2023-02-05T05:01:58;0.83;;;0.50;;
21122;SDS011;10719;48.130;11.630;2023-02-05T05:04:24;1.20;;;0.50;;
21122;SDS011;10719;48.130;11.630;2023-02-05T05:06:50;4.17;;;1.50;;
21122;SDS011;10719;48.130;11.630;2023-02-05T05:09:15;1.50;;;0.83;;
21122;SDS011;10719;48.130;11.630;2023-02-05T05:11:41;1.40;;;0.93;;
21122;SDS011;10719;48.130;11.630;2023-02-05T05:14:07;1.80;;;0.60;;
21122;SDS011;10719;48.130;11.630;2023-02-05T05:16:32;1.83;;;1.20;;
21122;SDS011;10719;48.130;11.630;2023-02-05T05:18:58;2.40;;;0.70;;
21122;SDS011;10719;48.130;11.630;2023-02-05T05:21:23;0.87;;;0.40;;
21122;SDS011;10719;48.130;11.630;2023-02-05T05:23:49;0.90;;;0.70;;
21122;SDS011;10719;48.130;11.630;2023-02-05T05:26:15;1.00;;;0.70;;
21122;SDS011;10719;48.130;11.630;2023-02-05T05:28:40;2.33;;;1.20;;
21122;SDS011;10719;48.130;11.630;2023-02-05T05:31:13;5.70;;;1.03;;
21122;SDS011;10719;48.130;11.630;2023-02-05T05:33:43;2.10;;;0.70;;
21122;SDS011;10719;48.130;11.630;2023-02-05T05:36:09;2.00;;;1.17;;
21122;SDS011;10719;48.130;11.630;2023-02-05T05:38:35;3.70;;;1.30;;
21122;SDS011;10719;48.130;11.630;2023-02-05T05:41:00;2.13;;;1.27;;
21122;SDS011;10719;48.130;11.630;2023-02-05T05:43:45;1.53;;;0.73;;
21122;SDS011;10719;48.130;11.630;2023-02-05T05:46:12;1.13;;;0.80;;
21122;SDS011;10719;48.130;11.630;2023-02-05T05:48:55;2.47;;;0.80;;
21122;SDS011;10719;48.130;11.630;2023-02-05T05:51:22;0.90;;;0.40;;
21122;SDS011;10719;48.130;11.630;2023-02-05T05:53:49;1.80;;;1.00;;
21122;SDS011;10719;48.130;11.630;2023-02-05T05:56:15;4.53;;;1.97;;
21122;SDS011;10719;48.130;11.630;2023-02-05T05:58:42;1.97;;;0.83;;
21122;SDS011;10719;48.130;11.630;2023-02-05T06:01:08;3.57;;;1.57;;
21122;SDS011;10719;48.130;11.630;2023-02-05T06:03:35;2.57;;;1.40;;
21122;SDS011;10719;48.130;11.630;2023-02-05T06:06:01;1.67;;;0.70;;
21122;SDS011;10719;48.130;11.630;2023-02-05T06:08:28;1.17;;;0.70;;
21122;SDS011;10719;48.130;11.630;2023-02-05T06:10:54;2.87;;;1.43;;
21122;SDS011;10719;48.130;11.630;2023-02-05T06:13:20;0.60;;;0.60;;
21122;SDS011;10719;48.130;11.630;2023-02-05T06:15:45;2.03;;;1.50;;
21122;SDS011;10719;48.130;11.630;2023-02-05T06:18:12;1.53;;;1.30;;
21122;SDS011;10719;48.130;11.630;2023-02-05T06:20:39;2.43;;;1.03;;
21122;SDS011;10719;48.130;11.630;2023-02-05T06:23:04;2.53;;;1.63;;
21122;SDS011;10719;48.130;11.630;2023-02-05T06:25:30;2.23;;;1.63;;
21122;SDS011;10719;48.130;11.630;2023-02-05T06:27:55;1.33;;;0.80;;
21122;SDS011;10719;48.130;11.630;2023-02-05T06:30:21;2.10;;;1.17;;
21122;SDS011;10719;48.130;11.630;2023-02-05T06:32:47;3.60;;;1.37;;
21122;SDS011;10719;48.130;11.630;2023-02-05T06:35:12;1.83;;;0.87;;
21122;SDS011;10719;48.130;11.630;2023-02-05T06:37:38;1.30;;;0.67;;
21122;SDS011;10719;48.130;11.630;2023-02-05T06:40:04;1.20;;;1.00;;
21122;SDS011;10719;48.130;11.630;2023-02-05T06:42:29;5.27;;;1.20;;
21122;SDS011;10719;48.130;11.630;2023-02-05T06:44:55;1.10;;;0.70;;
21122;SDS011;10719;48.130;11.630;2023-02-05T06:47:21;1.83;;;1.10;;
21122;SDS011;10719;48.130;11.630;2023-02-05T06:49:46;1.33;;;0.67;;
21122;SDS011;10719;48.130;11.630;2023-02-05T06:52:12;1.90;;;1.03;;
21122;SDS011;10719;48.130;11.630;2023-02-05T06:54:38;1.80;;;1.60;;
21122;SDS011;10719;48.130;11.630;2023-02-05T06:57:03;2.73;;;0.93;;
21122;SDS011;10719;48.130;11.630;2023-02-05T06:59:29;0.40;;;0.40;;
21122;SDS011;10719;48.130;11.630;2023-02-05T07:01:55;1.70;;;1.07;;
21122;SDS011;10719;48.130;11.630;2023-02-05T07:04:20;1.80;;;1.23;;
21122;SDS011;10719;48.130;11.630;2023-02-05T07:06:46;2.77;;;1.13;;
21122;SDS011;10719;48.130;11.630;2023-02-05T07:09:11;1.30;;;0.90;;
21122;SDS011;10719;48.130;11.630;2023-02-05T07:11:37;1.03;;;0.77;;
21122;SDS011;10719;48.130;11.630;2023-02-05T07:14:02;2.03;;;0.70;;
21122;SDS011;10719;48.130;11.630;2023-02-05T07:16:29;3.60;;;1.53;;
21122;SDS011;10719;48.130;11.630;2023-02-05T07:18:56;7.10;;;1.27;;
21122;SDS011;10719;48.130;11.630;2023-02-05T07:21:22;0.53;;;0.53;;
21122;SDS011;10719;48.130;11.630;2023-02-05T07:23:47;2.27;;;0.93;;
21122;SDS011;10719;48.130;11.630;2023-02-05T07:26:14;3.37;;;1.23;;
21122;SDS011;10719;48.130;11.630;2023-02-05T07:28:41;2.93;;;1.23;;
21122;SDS011;10719;48.130;11.630;2023-02-05T07:31:08;1.27;;;0.90;;
21122;SDS011;10719;48.130;11.630;2023-02-05T07:33:36;0.80;;;0.43;;
21122;SDS011;10719;48.130;11.630;2023-02-05T07:36:02;3.13;;;1.30;;
21122;SDS011;10719;48.130;11.630;2023-02-05T07:38:29;1.70;;;0.90;;
21122;SDS011;10719;48.130;11.630;2023-02-05T07:40:55;2.63;;;1.20;;
21122;SDS011;10719;48.130;11.630;2023-02-05T07:43:20;3.03;;;1.53;;
21122;SDS011;10719;48.130;11.630;2023-02-05T07:45:46;2.90;;;1.17;;
21122;SDS011;10719;48.130;11.630;2023-02-05T07:48:11;4.00;;;1.27;;
21122;SDS011;10719;48.130;11.630;2023-02-05T07:50:41;2.90;;;0.93;;
21122;SDS011;10719;48.130;11.630;2023-02-05T07:53:08;3.27;;;1.10;;
21122;SDS011;10719;48.130;11.630;2023-02-05T07:55:34;7.50;;;2.63;;
21122;SDS011;10719;48.130;11.630;2023-02-05T07:57:59;3.03;;;1.37;;
21122;SDS011;10719;48.130;11.630;2023-02-05T08:00:25;3.43;;;1.43;;
21122;SDS011;10719;48.130;11.630;2023-02-05T08:02:50;5.50;;;2.53;;
21122;SDS011;10719;48.130;11.630;2023-02-05T08:05:16;6.27;;;2.47;;
21122;SDS011;10719;48.130;11.630;2023-02-05T08:07:42;1.43;;;0.93;;
21122;SDS011;10719;48.130;11.630;2023-02-05T08:10:08;3.23;;;1.63;;
21122;SDS011;10719;48.130;11.630;2023-02-05T08:12:37;2.63;;;1.40;;
21122;SDS011;10719;48.130;11.630;2023-02-05T08:15:02;1.37;;;0.90;;
21122;SDS011;10719;48.130;11.630;2023-02-05T08:17:28;2.50;;;0.93;;
21122;SDS011;10719;48.130;11.630;2023-02-05T08:19:53;1.67;;;0.80;;
21122;SDS011;10719;48.130;11.630;2023-02-05T08:22:19;3.90;;;1.20;;
21122;SDS011;10719;48.130;11.630;2023-02-05T08:24:44;1.57;;;0.80;;
21122;SDS011;10719;48.130;11.630;2023-02-05T08:27:10;1.97;;;0.87;;
21122;SDS011;10719;48.130;11.630;2023-02-05T08:29:36;1.97;;;1.03;;
21122;SDS011;10719;48.130;11.630;2023-02-05T08:32:01;1.50;;;0.90;;
21122;SDS011;10719;48.130;11.630;2023-02-05T08:34:27;3.23;;;1.17;;
21122;SDS011;10719;48.130;11.630;2023-02-05T08:36:53;2.70;;;0.97;;
21122;SDS011;10719;48.130;11.630;2023-02-05T08:39:18;2.00;;;1.20;;
21122;SDS011;10719;48.130;11.630;2023-02-05T08:41:44;2.30;;;1.10;;
21122;SDS011;10719;48.130;11.630;2023-02-05T08:44:10;2.63;;;1.20;;
21122;SDS011;10719;48.130;11.630;2023-02-05T08:46:37;1.83;;;0.70;;
21122;SDS011;10719;48.130;11.630;2023-02-05T08:49:04;3.70;;;1.13;;
21122;SDS011;10719;48.130;11.630;2023-02-05T08:51:29;2.07;;;1.20;;
21122;SDS011;10719;48.130;11.630;2023-02-05T08:53:57;5.03;;;1.27;;
21122;SDS011;10719;48.130;11.630;2023-02-05T08:56:23;3.23;;;1.60;;
21122;SDS011;10719;48.130;11.630;2023-02-05T08:58:49;1.67;;;1.23;;
21122;SDS011;10719;48.130;11.630;2023-02-05T09:01:15;1.90;;;1.07;;
21122;SDS011;10719;48.130;11.630;2023-02-05T09:03:41;2.57;;;1.33;;
21122;SDS011;10719;48.130;11.630;2023-02-05T09:06:08;0.60;;;0.60;;
21122;SDS011;10719;48.130;11.630;2023-02-05T09:08:38;2.00;;;1.37;;
21122;SDS011;10719;48.130;11.630;2023-02-05T09:11:04;4.27;;;2.03;;
21122;SDS011;10719;48.130;11.630;2023-02-05T09:13:31;1.07;;;0.87;;
21122;SDS011;10719;48.130;11.630;2023-02-05T09:15:57;4.43;;;1.77;;
21122;SDS011;10719;48.130;11.630;2023-02-05T09:18:22;2.47;;;1.10;;
21122;SDS011;10719;48.130;11.630;2023-02-05T09:20:49;0.80;;;0.80;;
21122;SDS011;10719;48.130;11.630;2023-02-05T09:23:16;3.57;;;1.40;;
21122;SDS011;10719;48.130;11.630;2023-02-05T09:25:42;2.73;;;1.20;;
21122;SDS011;10719;48.130;11.630;2023-02-05T09:28:09;3.27;;;1.40;;
21122;SDS011;10719;48.130;11.630;2023-02-05T09:30:36;4.10;;;1.77;;
21122;SDS011;10719;48.130;11.630;2023-02-05T09:33:03;2.30;;;1.47;;
21122;SDS011;10719;48.130;11.630;2023-02-05T09:35:30;3.03;;;1.17;;
21122;SDS011;10719;48.130;11.630;2023-02-05T09:37:56;3.63;;;1.83;;
21122;SDS011;10719;48.130;11.630;2023-02-05T09:40:23;2.83;;;1.67;;
21122;SDS011;10719;48.130;11.630;2023-02-05T09:43:00;4.67;;;1.77;;
21122;SDS011;10719;48.130;11.630;2023-02-05T09:45:32;5.20;;;1.77;;
21122;SDS011;10719;48.130;11.630;2023-02-05T09:50:34;3.30;;;1.10;;
21122;SDS011;10719;48.130;11.630;2023-02-05T09:53:03;4.83;;;1.90;;
21122;SDS011;10719;48.130;11.630;2023-02-05T09:55:32;5.10;;;1.70;;
21122;SDS011;10719;48.130;11.630;2023-02-05T09:58:16;3.20;;;1.07;;
21122;SDS011;10719;48.130;11.630;2023-02-05T10:00:58;1.57;;;1.03;;
21122;SDS011;10719;48.130;11.630;2023-02-05T10:03:36;1.87;;;1.10;;
21122;SDS011;10719;48.130;11.630;2023-02-05T10:11:41;4.57;;;1.17;;
21122;SDS011;10719;48.130;11.630;2023-02-05T10:31:10;2.80;;;0.80;;
21122;SDS011;10719;48.130;11.630;2023-02-05T10:34:06;4.82;;;1.38;;
21122;SDS011;10719;48.130;11.630;2023-02-05T10:37:00;6.22;;;1.90;;
21122;SDS011;10719;48.130;11.630;2023-02-05T10:39:29;3.97;;;1.00;;
21122;SDS011;10719;48.130;11.630;2023-02-05T10:41:57;3.38;;;1.60;;
21122;SDS011;10719;48.130;11.630;2023-02-05T10:44:39;2.47;;;1.10;;
21122;SDS011;10719;48.130;11.630;2023-02-05T10:52:25;3.00;;;1.50;;
21122;SDS011;10719;48.130;11.630;2023-02-05T10:54:50;2.83;;;1.40;;
21122;SDS011;10719;48.130;11.630;2023-02-05T10:57:17;3.55;;;1.58;;
21122;SDS011;10719;48.130;11.630;2023-02-05T11:00:05;2.83;;;1.25;;
21122;SDS011;10719;48.130;11.630;2023-02-05T11:02:51;2.60;;;1.35;;
21122;SDS011;10719;48.130;11.630;2023-02-05T11:08:02;4.38;;;1.42;;
21122;SDS011;10719;48.130;11.630;2023-02-05T11:10:29;3.53;;;1.10;;
21122;SDS011;10719;48.130;11.630;2023-02-05T11:15:37;7.70;;;1.20;;
21122;SDS011;10719;48.130;11.630;2023-02-05T11:18:23;2.35;;;1.02;;
21122;SDS011;10719;48.130;11.630;2023-02-05T11:20:55;4.45;;;1.65;;
21122;SDS011;10719;48.130;11.630;2023-02-05T11:23:24;3.63;;;1.50;;
21122;SDS011;10719;48.130;11.630;2023-02-05T11:25:55;1.58;;;0.90;;
21122;SDS011;10719;48.130;11.630;2023-02-05T11:28:29;3.33;;;1.35;;
21122;SDS011;10719;48.130;11.630;2023-02-05T11:34:08;2.88;;;1.15;;
21122;SDS011;10719;48.130;11.630;2023-02-05T11:36:36;5.30;;;1.20;;
21122;SDS011;10719;48.130;11.630;2023-02-05T11:39:03;1.88;;;1.05;;
21122;SDS011;10719;48.130;11.630;2023-02-05T11:44:12;1.85;;;1.38;;
21122;SDS011;10719;48.130;11.630;2023-02-05T11:46:46;3.40;;;1.42;;
21122;SDS011;10719;48.130;11.630;2023-02-05T11:49:22;2.78;;;1.13;;
21122;SDS011;10719;48.130;11.630;2023-02-05T11:51:54;9.98;;;1.38;;
21122;SDS011;10719;48.130;11.630;2023-02-05T11:54:31;4.28;;;1.13;;
21122;SDS011;10719;48.130;11.630;2023-02-05T11:57:06;3.88;;;1.60;;
21122;SDS011;10719;48.130;11.630;2023-02-05T11:59:38;1.52;;;0.88;;
21122;SDS011;10719;48.130;11.630;2023-02-05T12:02:26;8.75;;;1.10;;
21122;SDS011;10719;48.130;11.630;2023-02-05T12:16:00;4.13;;;1.42;;
21122;SDS011;10719;48.130;11.630;2023-02-05T12:18:59;2.38;;;1.00;;
21122;SDS011;10719;48.130;11.630;2023-02-05T12:24:29;7.68;;;2.10;;
21122;SDS011;10719;48.130;11.630;2023-02-05T12:27:26;2.38;;;0.95;;
21122;SDS011;10719;48.130;11.630;2023-02-05T12:32:36;4.30;;;1.60;;
21122;SDS011;10719;48.130;11.630;2023-02-05T12:48:49;11.40;;;1.67;;
21122;SDS011;10719;48.130;11.630;2023-02-05T12:54:33;0.85;;;0.73;;
21122;SDS011;10719;48.130;11.630;2023-02-05T12:57:10;6.85;;;2.20;;
21122;SDS011;10719;48.130;11.630;2023-02-05T13:02:14;4.15;;;1.00;;
21122;SDS011;10719;48.130;11.630;2023-02-05T13:07:32;2.45;;;1.23;;
21122;SDS011;10719;48.130;11.630;2023-02-05T13:12:44;1.80;;;1.00;;
21122;SDS011;10719;48.130;11.630;2023-02-05T13:15:18;0.40;;;0.40;;
21122;SDS011;10719;48.130;11.630;2023-02-05T13:17:50;1.55;;;1.02;;
21122;SDS011;10719;48.130;11.630;2023-02-05T13:20:23;2.13;;;1.52;;
21122;SDS011;10719;48.130;11.630;2023-02-05T13:23:13;2.75;;;1.02;;
21122;SDS011;10719;48.130;11.630;2023-02-05T13:25:58;3.25;;;1.85;;
21122;SDS011;10719;48.130;11.630;2023-02-05T13:28:43;0.90;;;0.60;;
21122;SDS011;10719;48.130;11.630;2023-02-05T13:34:03;2.65;;;1.27;;
21122;SDS011;10719;48.130;11.630;2023-02-05T13:39:36;2.10;;;1.20;;
21122;SDS011;10719;48.130;11.630;2023-02-05T14:01:22;3.08;;;1.30;;
21122;SDS011;10719;48.130;11.630;2023-02-05T14:03:59;3.23;;;1.37;;
21122;SDS011;10719;48.130;11.630;2023-02-05T14:06:29;4.40;;;1.93;;
21122;SDS011;10719;48.130;11.630;2023-02-05T14:16:40;2.72;;;1.20;;
21122;SDS011;10719;48.130;11.630;2023-02-05T14:26:53;5.75;;;2.45;;
21122;SDS011;10719;48.130;11.630;2023-02-05T14:29:40;2.57;;;1.33;;
21122;SDS011;10719;48.130;11.630;2023-02-05T14:32:11;1.90;;;1.20;;
21122;SDS011;10719;48.130;11.630;2023-02-05T14:35:01;2.03;;;1.03;;
21122;SDS011;10719;48.130;11.630;2023-02-05T14:37:48;4.30;;;1.47;;
21122;SDS011;10719;48.130;11.630;2023-02-05T14:43:21;4.90;;;2.23;;
21122;SDS011;10719;48.130;11.630;2023-02-05T14:45:55;8.63;;;1.43;;
21122;SDS011;10719;48.130;11.630;2023-02-05T14:48:24;1.77;;;1.20;;
21122;SDS011;10719;48.130;11.630;2023-02-05T14:51:02;7.60;;;2.13;;
21122;SDS011;10719;48.130;11.630;2023-02-05T14:53:40;8.97;;;2.90;;
21122;SDS011;10719;48.130;11.630;2023-02-05T14:56:25;4.87;;;2.20;;
21122;SDS011;10719;48.130;11.630;2023-02-05T14:59:02;4.53;;;1.90;;
21122;SDS011;10719;48.130;11.630;2023-02-05T15:04:00;8.83;;;1.70;;
21122;SDS011;10719;48.130;11.630;2023-02-05T15:06:28;5.03;;;2.00;;
21122;SDS011;10719;48.130;11.630;2023-02-05T15:09:03;4.83;;;2.07;;
21122;SDS011;10719;48.130;11.630;2023-02-05T15:12:13;5.93;;;1.93;;
21122;SDS011;10719;48.130;11.630;2023-02-05T15:15:26;3.47;;;1.70;;
21122;SDS011;10719;48.130;11.630;2023-02-05T15:18:01;16.77;;;2.07;;
21122;SDS011;10719;48.130;11.630;2023-02-05T15:20:37;3.37;;;1.80;;
21122;SDS011;10719;48.130;11.630;2023-02-05T15:23:05;4.93;;;1.73;;
21122;SDS011;10719;48.130;11.630;2023-02-05T15:25:50;6.37;;;1.90;;
21122;SDS011;10719;48.130;11.630;2023-02-05T15:28:44;3.70;;;1.73;;
21122;SDS011;10719;48.130;11.630;2023-02-05T15:31:19;4.93;;;1.93;;
21122;SDS011;10719;48.130;11.630;2023-02-05T15:36:44;16.00;;;3.30;;
21122;SDS011;10719;48.130;11.630;2023-02-05T15:41:56;8.97;;;3.33;;
21122;SDS011;10719;48.130;11.630;2023-02-05T15:44:25;3.73;;;2.47;;
21122;SDS011;10719;48.130;11.630;2023-02-05T15:46:59;7.50;;;1.70;;
21122;SDS011;10719;48.130;11.630;2023-02-05T15:49:33;6.63;;;3.03;;
21122;SDS011;10719;48.130;11.630;2023-02-05T15:52:17;4.90;;;1.70;;
21122;SDS011;10719;48.130;11.630;2023-02-05T15:54:48;6.20;;;2.40;;
21122;SDS011;10719;48.130;11.630;2023-02-05T15:57:22;2.70;;;1.73;;
21122;SDS011;10719;48.130;11.630;2023-02-05T15:59:51;8.67;;;2.53;;
21122;SDS011;10719;48.130;11.630;2023-02-05T16:02:19;6.73;;;2.47;;
21122;SDS011;10719;48.130;11.630;2023-02-05T16:04:57;6.60;;;1.90;;
21122;SDS011;10719;48.130;11.630;2023-02-05T16:07:34;15.63;;;2.83;;
21122;SDS011;10719;48.130;11.630;2023-02-05T16:10:21;7.43;;;2.70;;
21122;SDS011;10719;48.130;11.630;2023-02-05T16:15:23;9.40;;;2.43;;
21122;SDS011;10719;48.130;11.630;2023-02-05T16:17:58;5.90;;;2.43;;
21122;SDS011;10719;48.130;11.630;2023-02-05T16:20:34;4.00;;;1.63;;
21122;SDS011;10719;48.130;11.630;2023-02-05T16:23:23;18.23;;;6.13;;
21122;SDS011;10719;48.130;11.630;2023-02-05T16:25:59;7.90;;;3.47;;
21122;SDS011;10719;48.130;11.630;2023-02-05T16:28:36;7.63;;;3.10;;
21122;SDS011;10719;48.130;11.630;2023-02-05T16:31:09;5.40;;;2.60;;
21122;SDS011;10719;48.130;11.630;2023-02-05T16:33:51;7.37;;;2.07;;
21122;SDS011;10719;48.130;11.630;2023-02-05T16:36:23;5.90;;;2.10;;
21122;SDS011;10719;48.130;11.630;2023-02-05T16:38:55;5.47;;;2.47;;
21122;SDS011;10719;48.130;11.630;2023-02-05T16:41:31;5.63;;;2.57;;
21122;SDS011;10719;48.130;11.630;2023-02-05T16:44:03;4.07;;;2.13;;
21122;SDS011;10719;48.130;11.630;2023-02-05T16:46:30;5.77;;;2.83;;
21122;SDS011;10719;48.130;11.630;2023-02-05T16:48:58;7.10;;;3.13;;
21122;SDS011;10719;48.130;11.630;2023-02-05T16:53:51;9.00;;;3.43;;
21122;SDS011;10719;48.130;11.630;2023-02-05T16:56:24;8.00;;;3.27;;
21122;SDS011;10719;48.130;11.630;2023-02-05T16:58:53;9.40;;;3.40;;
21122;SDS011;10719;48.130;11.630;2023-02-05T17:01:26;5.33;;;2.80;;
21122;SDS011;10719;48.130;11.630;2023-02-05T17:04:02;4.90;;;1.80;;
21122;SDS011;10719;48.130;11.630;2023-02-05T17:06:35;7.13;;;2.87;;
21122;SDS011;10719;48.130;11.630;2023-02-05T17:09:01;7.50;;;3.63;;
21122;SDS011;10719;48.130;11.630;2023-02-05T17:11:30;8.30;;;3.27;;
21122;SDS011;10719;48.130;11.630;2023-02-05T17:16:58;9.37;;;3.53;;
21122;SDS011;10719;48.130;11.630;2023-02-05T17:19:39;10.07;;;3.03;;
21122;SDS011;10719;48.130;11.630;2023-02-05T17:24:40;7.27;;;3.27;;
21122;SDS011;10719;48.130;11.630;2023-02-05T17:27:13;8.13;;;3.47;;
21122;SDS011;10719;48.130;11.630;2023-02-05T17:29:40;8.17;;;3.47;;
21122;SDS011;10719;48.130;11.630;2023-02-05T17:32:07;11.07;;;4.13;;
21122;SDS011;10719;48.130;11.630;2023-02-05T17:34:42;6.20;;;2.93;;
21122;SDS011;10719;48.130;11.630;2023-02-05T17:37:08;8.90;;;3.13;;
21122;SDS011;10719;48.130;11.630;2023-02-05T17:39:34;5.53;;;2.83;;
21122;SDS011;10719;48.130;11.630;2023-02-05T17:41:59;6.90;;;3.70;;
21122;SDS011;10719;48.130;11.630;2023-02-05T17:44:27;13.80;;;3.43;;
21122;SDS011;10719;48.130;11.630;2023-02-05T17:46:53;6.37;;;2.50;;